Terminal Aerodrome Forecast
Issued by NWS

Home | Current Version | Previous Version | Text Only | Print | Product List | Glossary On
Versions: 1 2 3 4 5 6 7 8 9 10 11 12 13
000
FTUS44 KOUN 231724
TAFGAG
TAF
KGAG 231724Z 2318/2418 19028G39KT P6SM SKC
     FM240000 18031G41KT P6SM SCT150 BKN200
      TEMPO 2404/2407 VRB40KT 5SM -TSRA BKN050CB
     FM240900 20023G33KT P6SM SCT250=

USA.gov is the U.S. government's official web portal to all federal, state and local government web resources and services.